createdAt,value
2018-11-23T00:00:00.486Z,0.40
2018-11-23T00:02:27.958Z,0.40
2018-11-23T00:04:55.433Z,0.40
2018-11-23T00:07:22.728Z,0.40
2018-11-23T00:09:49.865Z,0.40
2018-11-23T00:12:17.402Z,0.40
2018-11-23T00:14:44.523Z,0.40
2018-11-23T00:17:11.992Z,0.30
2018-11-23T00:19:39.123Z,0.40
2018-11-23T00:22:06.336Z,0.50
2018-11-23T00:24:33.807Z,0.30
2018-11-23T00:27:00.949Z,0.20
2018-11-23T00:29:28.077Z,0.10
2018-11-23T00:31:55.203Z,0.10
2018-11-23T00:34:22.639Z,0.10
2018-11-23T00:36:50.248Z,0.10
2018-11-23T00:39:17.412Z,0.10
2018-11-23T00:41:44.618Z,0.10
2018-11-23T00:44:12.051Z,0.10
2018-11-23T00:47:19.378Z,0.10
2018-11-23T00:49:47.023Z,0.10
2018-11-23T00:52:14.638Z,0.10
2018-11-23T00:54:42.522Z,0.20
2018-11-23T00:57:10.176Z,0.00
2018-11-23T00:59:38.466Z,0.00
2018-11-23T01:02:07.485Z,0.00
2018-11-23T01:04:36.053Z,0.00
2018-11-23T01:07:04.430Z,0.00
2018-11-23T01:09:32.375Z,0.10
2018-11-23T01:12:00.242Z,-0.10
2018-11-23T01:14:27.908Z,-0.10
2018-11-23T01:16:55.651Z,-0.10
2018-11-23T01:19:23.357Z,0.00
2018-11-23T01:21:51.182Z,-0.10
2018-11-23T01:24:19.087Z,-0.20
2018-11-23T01:26:46.871Z,-0.20
2018-11-23T01:29:14.941Z,-0.30
2018-11-23T01:31:42.588Z,-0.30
2018-11-23T01:34:16.940Z,-0.30
2018-11-23T01:36:44.535Z,-0.40
2018-11-23T01:39:12.095Z,-0.40
2018-11-23T01:41:40.416Z,-0.40
2018-11-23T01:44:08.703Z,-0.40
2018-11-23T01:46:37.049Z,-0.40
2018-11-23T01:49:04.795Z,-0.40
2018-11-23T01:51:32.698Z,-0.40
2018-11-23T01:54:00.397Z,-0.40
2018-11-23T01:56:28.166Z,-0.40
2018-11-23T01:58:56.188Z,-0.30
2018-11-23T02:01:24.126Z,-0.40
2018-11-23T02:03:51.795Z,-0.40
2018-11-23T02:06:19.492Z,-0.50
2018-11-23T02:08:47.502Z,-0.40
2018-11-23T02:11:15.139Z,-0.30
2018-11-23T02:13:42.958Z,-0.30
2018-11-23T02:16:10.563Z,-0.40
2018-11-23T02:18:38.525Z,-0.40
2018-11-23T02:21:07.551Z,-0.50
2018-11-23T02:23:35.232Z,-0.40
2018-11-23T02:26:02.863Z,-0.50
2018-11-23T02:28:30.639Z,-0.40
2018-11-23T02:31:03.107Z,-0.50
2018-11-23T02:33:30.710Z,-0.50
2018-11-23T02:35:58.455Z,-0.50
2018-11-23T02:38:26.675Z,-0.40
2018-11-23T02:40:54.291Z,-0.40
2018-11-23T02:43:21.880Z,-0.30
2018-11-23T02:45:49.475Z,-0.40
2018-11-23T02:48:17.088Z,-0.30
2018-11-23T02:50:44.782Z,-0.30
2018-11-23T02:53:12.588Z,-0.30
2018-11-23T02:55:41.542Z,-0.30
2018-11-23T02:58:09.807Z,-0.40
2018-11-23T03:00:38.163Z,-0.40
2018-11-23T03:03:05.847Z,-0.50
2018-11-23T03:05:33.449Z,-0.50
2018-11-23T03:08:02.483Z,-0.50
2018-11-23T03:10:30.694Z,-0.50
2018-11-23T03:12:59.482Z,-0.50
2018-11-23T03:15:27.126Z,-0.50
2018-11-23T03:17:54.738Z,-0.40
2018-11-23T03:20:22.842Z,-0.40
2018-11-23T03:22:50.594Z,-0.30
2018-11-23T03:25:18.242Z,-0.20
2018-11-23T03:27:45.912Z,-0.30
2018-11-23T03:30:15.914Z,-0.30
2018-11-23T03:32:44.784Z,-0.40
2018-11-23T03:35:12.729Z,-0.40
2018-11-23T03:37:40.363Z,-0.30
2018-11-23T03:40:08.793Z,-0.40
2018-11-23T03:42:36.447Z,-0.30
2018-11-23T03:45:05.448Z,-0.30
2018-11-23T03:47:34.303Z,-0.20
2018-11-23T03:50:02.617Z,-0.20
2018-11-23T03:52:30.230Z,-0.20
2018-11-23T03:54:57.919Z,-0.20
2018-11-23T03:57:25.530Z,-0.20
2018-11-23T03:59:53.628Z,-0.20
2018-11-23T04:02:21.260Z,-0.10
2018-11-23T04:04:48.859Z,0.00
2018-11-23T04:07:17.919Z,0.00
2018-11-23T04:09:45.875Z,0.10
2018-11-23T04:12:13.707Z,0.20
2018-11-23T04:14:41.582Z,0.30
2018-11-23T04:17:09.290Z,0.30
2018-11-23T04:19:37.114Z,0.30
2018-11-23T04:22:04.953Z,0.30
2018-11-23T04:24:32.607Z,0.20
2018-11-23T04:27:00.266Z,0.30
2018-11-23T04:29:27.916Z,0.30
2018-11-23T04:32:02.346Z,0.20
2018-11-23T04:34:29.985Z,0.30
2018-11-23T04:36:57.680Z,0.40
2018-11-23T04:39:25.339Z,0.30
2018-11-23T04:41:52.903Z,0.20
2018-11-23T04:44:20.662Z,0.30
2018-11-23T04:46:49.735Z,0.30
2018-11-23T04:49:17.317Z,0.20
2018-11-23T04:51:44.992Z,0.30
2018-11-23T04:54:12.614Z,0.30
2018-11-23T04:56:40.218Z,0.30
2018-11-23T04:59:07.839Z,0.30
2018-11-23T05:01:35.946Z,0.40
2018-11-23T05:04:03.723Z,0.30
2018-11-23T05:06:32.507Z,0.30
2018-11-23T05:09:00.759Z,0.40
2018-11-23T05:11:29.903Z,0.40
2018-11-23T05:13:57.487Z,0.30
2018-11-23T05:16:25.120Z,0.30
2018-11-23T05:18:53.772Z,0.20
2018-11-23T05:21:21.512Z,0.10
2018-11-23T05:23:49.138Z,0.00
2018-11-23T05:26:16.833Z,-0.10
2018-11-23T05:28:44.494Z,-0.10
2018-11-23T05:31:12.768Z,0.00
2018-11-23T05:33:40.479Z,-0.10
2018-11-23T05:36:08.201Z,-0.20
2018-11-23T05:38:35.875Z,-0.20
2018-11-23T05:41:03.554Z,-0.20
2018-11-23T05:43:31.277Z,-0.30
2018-11-23T05:45:59.107Z,-0.30
2018-11-23T05:48:26.881Z,-0.30
2018-11-23T05:50:56.567Z,-0.30
2018-11-23T05:53:24.327Z,-0.30
2018-11-23T05:55:52.066Z,-0.30
2018-11-23T05:58:19.826Z,-0.40
2018-11-23T06:00:47.469Z,-0.40
2018-11-23T06:03:15.147Z,-0.40
2018-11-23T06:05:42.857Z,-0.40
2018-11-23T06:08:11.277Z,-0.40
2018-11-23T06:10:38.960Z,-0.50
2018-11-23T06:13:06.890Z,-0.40
2018-11-23T06:15:35.128Z,-0.30
2018-11-23T06:18:02.733Z,-0.30
2018-11-23T06:20:30.394Z,-0.40
2018-11-23T06:22:58.216Z,-0.50
2018-11-23T06:25:31.024Z,-0.40
2018-11-23T06:27:59.428Z,-0.40
2018-11-23T06:30:27.114Z,-0.20
2018-11-23T06:33:06.111Z,-0.30
2018-11-23T06:35:33.707Z,-0.30
2018-11-23T06:38:01.533Z,-0.30
2018-11-23T06:40:29.174Z,-0.10
2018-11-23T06:42:56.798Z,-0.20
2018-11-23T06:45:24.700Z,-0.20
2018-11-23T06:47:52.477Z,-0.30
2018-11-23T06:50:20.892Z,-0.10
2018-11-23T06:52:49.186Z,-0.10
2018-11-23T06:55:16.895Z,-0.20
2018-11-23T06:57:44.614Z,-0.20
2018-11-23T07:00:15.309Z,-0.30
2018-11-23T07:02:44.221Z,-0.10
2018-11-23T07:05:12.351Z,0.00
2018-11-23T07:07:40.583Z,0.40
2018-11-23T07:10:09.128Z,0.40
2018-11-23T07:12:37.902Z,0.50
2018-11-23T07:15:08.120Z,0.50
2018-11-23T07:17:35.822Z,0.40
2018-11-23T07:20:04.074Z,0.40
2018-11-23T07:22:33.107Z,0.40
2018-11-23T07:25:00.754Z,0.40
2018-11-23T07:27:28.506Z,0.40
2018-11-23T07:29:56.256Z,0.40
2018-11-23T07:32:24.009Z,0.50
2018-11-23T07:34:51.664Z,0.50
2018-11-23T07:37:19.987Z,0.60
2018-11-23T07:39:58.802Z,0.50
2018-11-23T07:42:28.314Z,0.60
2018-11-23T07:44:56.047Z,0.60
2018-11-23T07:47:23.739Z,0.60
2018-11-23T07:49:51.453Z,0.60
2018-11-23T07:52:19.335Z,0.70
2018-11-23T07:54:46.952Z,0.80
2018-11-23T07:57:14.642Z,0.80
2018-11-23T07:59:42.262Z,0.80
2018-11-23T08:02:11.695Z,0.90
2018-11-23T08:04:40.212Z,1.00
2018-11-23T08:07:09.068Z,1.20
2018-11-23T08:09:37.047Z,1.30
2018-11-23T08:12:05.517Z,1.30
2018-11-23T08:14:33.998Z,1.30
2018-11-23T08:17:01.800Z,1.30
2018-11-23T08:19:29.810Z,1.10
2018-11-23T08:21:57.575Z,1.00
2018-11-23T08:24:25.302Z,1.10
2018-11-23T08:26:53.357Z,1.20
2018-11-23T08:29:21.847Z,1.20
2018-11-23T08:31:50.148Z,1.30
2018-11-23T08:34:18.457Z,1.20
2018-11-23T08:36:46.073Z,1.30
2018-11-23T08:39:13.768Z,1.20
2018-11-23T08:41:41.583Z,1.10
2018-11-23T08:44:09.278Z,1.10
2018-11-23T08:46:36.907Z,1.20
2018-11-23T08:49:05.213Z,1.40
2018-11-23T08:51:32.907Z,1.60
2018-11-23T08:54:00.611Z,1.70
2018-11-23T08:56:28.227Z,1.70
2018-11-23T08:58:57.252Z,1.80
2018-11-23T09:01:24.963Z,2.00
2018-11-23T09:03:52.580Z,2.20
2018-11-23T09:06:20.269Z,2.30
2018-11-23T09:08:48.057Z,2.40
2018-11-23T09:11:15.791Z,2.30
2018-11-23T09:13:43.571Z,2.10
2018-11-23T09:16:11.273Z,2.10
2018-11-23T09:18:40.264Z,2.30
2018-11-23T09:21:08.565Z,2.30
2018-11-23T09:23:36.411Z,2.20
2018-11-23T09:26:04.319Z,2.30
2018-11-23T09:28:32.704Z,2.50
2018-11-23T09:31:00.552Z,2.50
2018-11-23T09:33:28.274Z,2.60
2018-11-23T09:35:56.189Z,2.60
2018-11-23T09:38:23.831Z,2.80
2018-11-23T09:40:51.586Z,3.10
2018-11-23T09:43:19.283Z,3.30
2018-11-23T09:45:46.979Z,3.40
2018-11-23T09:48:18.149Z,3.40
2018-11-23T09:50:46.514Z,3.60
2018-11-23T09:53:14.115Z,3.70
2018-11-23T09:55:41.779Z,3.80
2018-11-23T09:58:09.462Z,4.10
2018-11-23T10:00:37.609Z,4.30
2018-11-23T10:03:05.920Z,4.50
2018-11-23T10:08:04.503Z,4.80
2018-11-23T10:10:32.213Z,4.80
2018-11-23T10:13:00.065Z,4.90
2018-11-23T10:15:29.198Z,5.00
2018-11-23T10:17:56.872Z,5.10
2018-11-23T10:20:25.943Z,5.10
2018-11-23T10:22:53.781Z,5.00
2018-11-23T10:25:26.994Z,5.10
2018-11-23T10:27:54.796Z,5.20
2018-11-23T10:30:24.146Z,5.20
2018-11-23T10:32:53.042Z,5.20
2018-11-23T10:35:21.577Z,5.30
2018-11-23T10:37:51.084Z,5.40
2018-11-23T10:40:20.110Z,5.50
2018-11-23T10:42:47.919Z,5.40
2018-11-23T10:45:18.250Z,5.60
2018-11-23T10:47:46.440Z,5.50
2018-11-23T10:50:15.686Z,5.60
2018-11-23T10:52:43.717Z,5.80
2018-11-23T10:55:13.830Z,6.00
2018-11-23T10:57:41.689Z,6.10
2018-11-23T11:00:18.994Z,6.10
2018-11-23T11:02:52.737Z,5.90
2018-11-23T11:05:26.383Z,5.90
2018-11-23T11:07:54.757Z,5.80
2018-11-23T11:10:23.158Z,5.90
2018-11-23T11:12:50.873Z,5.90
2018-11-23T11:15:18.797Z,5.90
2018-11-23T11:17:46.990Z,6.00
2018-11-23T11:20:14.884Z,5.90
2018-11-23T11:22:42.486Z,5.80
2018-11-23T11:25:10.738Z,5.70
2018-11-23T11:27:39.356Z,5.60
2018-11-23T11:30:13.691Z,5.70
2018-11-23T11:32:42.521Z,5.70
2018-11-23T11:35:11.108Z,5.90
2018-11-23T11:37:39.107Z,6.00
2018-11-23T11:40:09.022Z,6.00
2018-11-23T11:42:36.840Z,6.10
2018-11-23T11:45:06.367Z,6.20
2018-11-23T11:47:34.086Z,6.30
2018-11-23T11:50:05.478Z,6.50
2018-11-23T11:52:33.754Z,6.70
2018-11-23T11:55:01.388Z,6.70
2018-11-23T11:57:29.719Z,6.70
2018-11-23T11:59:57.491Z,6.80
2018-11-23T12:02:25.136Z,6.90
2018-11-23T12:04:52.991Z,7.00
2018-11-23T12:07:20.603Z,7.00
2018-11-23T12:09:48.435Z,6.90
2018-11-23T12:12:16.147Z,7.00
2018-11-23T12:14:44.421Z,7.20
2018-11-23T12:17:12.954Z,7.10
2018-11-23T12:19:40.880Z,7.20
2018-11-23T12:22:08.788Z,7.30
2018-11-23T12:24:36.545Z,7.40
2018-11-23T12:27:04.205Z,7.20
2018-11-23T12:29:31.875Z,7.10
2018-11-23T12:31:59.575Z,7.20
2018-11-23T12:34:27.289Z,7.40
2018-11-23T12:36:54.933Z,7.00
2018-11-23T12:39:22.640Z,7.10
2018-11-23T12:41:50.450Z,7.30
2018-11-23T12:44:18.055Z,7.40
2018-11-23T12:46:45.806Z,7.50
2018-11-23T12:49:13.461Z,7.70
2018-11-23T12:51:41.119Z,7.80
2018-11-23T12:54:09.424Z,7.80
2018-11-23T12:56:37.250Z,7.90
2018-11-23T12:59:05.770Z,7.90
2018-11-23T13:01:33.482Z,7.80
2018-11-23T13:04:02.136Z,7.90
2018-11-23T13:06:29.891Z,7.70
2018-11-23T13:08:57.573Z,7.50
2018-11-23T13:11:25.215Z,7.30
2018-11-23T13:13:54.200Z,7.30
2018-11-23T13:16:22.342Z,7.40
2018-11-23T13:18:50.046Z,7.60
2018-11-23T13:21:17.747Z,7.70
2018-11-23T13:23:45.356Z,7.70
2018-11-23T13:26:13.062Z,7.80
2018-11-23T13:28:41.400Z,7.90
2018-11-23T13:31:09.163Z,8.10
2018-11-23T13:33:36.999Z,8.20
2018-11-23T13:36:05.589Z,8.20
2018-11-23T13:38:33.498Z,8.10
2018-11-23T13:41:01.254Z,7.80
2018-11-23T13:43:28.863Z,7.70
2018-11-23T13:45:56.635Z,7.60
2018-11-23T13:48:25.233Z,7.50
2018-11-23T13:50:53.142Z,7.50
2018-11-23T13:53:22.181Z,7.40
2018-11-23T13:55:50.017Z,7.30
2018-11-23T13:58:17.808Z,7.20
2018-11-23T14:00:46.103Z,7.00
2018-11-23T14:03:13.905Z,6.90
2018-11-23T14:05:41.544Z,6.90
2018-11-23T14:08:09.257Z,6.90
2018-11-23T14:10:37.465Z,6.90
2018-11-23T14:13:11.325Z,6.90
2018-11-23T14:15:33.641Z,6.90
2018-11-23T14:18:02.519Z,6.70
2018-11-23T14:20:30.573Z,6.70
2018-11-23T14:22:58.254Z,6.70
2018-11-23T14:25:27.620Z,6.80
2018-11-23T14:27:55.731Z,6.90
2018-11-23T14:30:27.690Z,6.90
2018-11-23T14:32:55.728Z,6.90
2018-11-23T14:35:25.792Z,6.80
2018-11-23T14:37:54.323Z,6.70
2018-11-23T14:40:22.144Z,6.70
2018-11-23T14:42:50.831Z,6.70
2018-11-23T14:45:22.281Z,6.60
2018-11-23T14:47:50.807Z,6.40
2018-11-23T14:50:20.384Z,6.50
2018-11-23T14:52:49.578Z,6.30
2018-11-23T14:55:18.496Z,6.10
2018-11-23T14:57:46.472Z,6.00
2018-11-23T15:00:17.544Z,5.90
2018-11-23T15:02:46.561Z,5.80
2018-11-23T15:05:14.914Z,5.90
2018-11-23T15:07:42.530Z,5.90
2018-11-23T15:10:12.844Z,5.80
2018-11-23T15:12:41.249Z,5.80
2018-11-23T15:15:12.428Z,5.70
2018-11-23T15:17:40.153Z,5.50
2018-11-23T15:20:11.905Z,5.50
2018-11-23T15:22:40.262Z,5.50
2018-11-23T15:25:09.020Z,5.50
2018-11-23T15:27:37.241Z,5.40
2018-11-23T15:30:10.556Z,5.40
2018-11-23T15:32:39.077Z,5.40
2018-11-23T15:35:08.638Z,5.50
2018-11-23T15:37:36.653Z,5.60
2018-11-23T15:40:06.596Z,5.60
2018-11-23T15:42:34.671Z,5.60
2018-11-23T15:45:03.101Z,5.70
2018-11-23T15:47:30.850Z,5.60
2018-11-23T15:49:58.688Z,5.50
2018-11-23T15:52:26.319Z,5.40
2018-11-23T15:54:54.778Z,5.40
2018-11-23T15:57:22.662Z,5.30
2018-11-23T15:59:50.319Z,5.30
2018-11-23T16:02:18.139Z,5.20
2018-11-23T16:04:45.838Z,5.10
2018-11-23T16:07:14.259Z,5.10
2018-11-23T16:09:42.544Z,5.10
2018-11-23T16:12:10.428Z,5.20
2018-11-23T16:14:38.293Z,5.10
2018-11-23T16:17:06.544Z,5.10
2018-11-23T16:19:34.993Z,5.00
2018-11-23T16:22:02.928Z,5.00
2018-11-23T16:24:30.755Z,5.00
2018-11-23T16:26:58.492Z,5.00
2018-11-23T16:29:26.888Z,5.10
2018-11-23T16:31:54.794Z,5.20
2018-11-23T16:34:22.499Z,5.10
2018-11-23T16:36:51.040Z,5.10
2018-11-23T16:39:19.218Z,5.20
2018-11-23T16:41:46.917Z,5.10
2018-11-23T16:44:14.565Z,5.20
2018-11-23T16:46:42.327Z,5.30
2018-11-23T16:49:10.014Z,5.30
2018-11-23T16:51:37.857Z,5.30
2018-11-23T16:54:05.538Z,5.40
2018-11-23T16:56:34.143Z,5.30
2018-11-23T16:59:02.022Z,5.40
2018-11-23T17:01:29.776Z,5.40
2018-11-23T17:03:57.482Z,5.40
2018-11-23T17:06:26.391Z,5.30
2018-11-23T17:08:54.880Z,5.20
2018-11-23T17:11:22.667Z,5.20
2018-11-23T17:13:50.432Z,5.10
2018-11-23T17:16:18.778Z,5.10
2018-11-23T17:18:46.542Z,5.00
2018-11-23T17:21:14.258Z,4.90
2018-11-23T17:23:42.187Z,4.90
2018-11-23T17:26:10.401Z,4.90
2018-11-23T17:28:38.196Z,5.00
2018-11-23T17:31:05.946Z,4.90
2018-11-23T17:33:34.348Z,4.80
2018-11-23T17:36:02.051Z,4.80
2018-11-23T17:38:29.894Z,4.90
2018-11-23T17:40:57.581Z,4.80
2018-11-23T17:43:26.640Z,4.80
2018-11-23T17:45:54.366Z,4.80
2018-11-23T17:48:22.064Z,4.80
2018-11-23T17:50:49.949Z,4.80
2018-11-23T17:53:17.897Z,4.80
2018-11-23T17:55:45.749Z,4.80
2018-11-23T17:58:13.892Z,4.90
2018-11-23T18:00:41.657Z,4.90
2018-11-23T18:03:09.596Z,4.90
2018-11-23T18:05:37.796Z,4.90
2018-11-23T18:08:05.743Z,5.00
2018-11-23T18:10:33.988Z,4.90
2018-11-23T18:13:02.070Z,5.00
2018-11-23T18:15:31.104Z,5.00
2018-11-23T18:17:59.953Z,5.00
2018-11-23T18:20:28.473Z,4.90
2018-11-23T18:22:56.991Z,4.80
2018-11-23T18:25:34.098Z,4.70
2018-11-23T18:28:02.953Z,4.70
2018-11-23T18:30:31.650Z,4.70
2018-11-23T18:33:06.960Z,4.80
2018-11-23T18:35:35.575Z,4.70
2018-11-23T18:38:03.449Z,4.70
2018-11-23T18:40:37.061Z,4.80
2018-11-23T18:42:59.646Z,4.80
2018-11-23T18:45:28.185Z,4.80
2018-11-23T18:47:56.023Z,4.80
2018-11-23T18:50:24.430Z,4.80
2018-11-23T18:52:52.208Z,4.90
2018-11-23T18:55:20.241Z,4.90
2018-11-23T18:57:48.641Z,4.90
2018-11-23T19:00:16.712Z,4.90
2018-11-23T19:02:45.822Z,4.90
2018-11-23T19:05:19.672Z,4.90
2018-11-23T19:07:47.472Z,4.90
2018-11-23T19:10:15.324Z,5.00
2018-11-23T19:12:43.138Z,5.00
2018-11-23T19:15:12.907Z,5.00
2018-11-23T19:17:40.728Z,5.10
2018-11-23T19:20:11.310Z,5.20
2018-11-23T19:22:39.636Z,5.10
2018-11-23T19:25:08.056Z,5.00
2018-11-23T19:27:36.115Z,5.10
2018-11-23T19:30:04.511Z,5.00
2018-11-23T19:32:32.302Z,5.00
2018-11-23T19:35:01.143Z,5.00
2018-11-23T19:37:29.035Z,5.00
2018-11-23T19:39:56.959Z,4.80
2018-11-23T19:42:25.633Z,4.80
2018-11-23T19:44:53.514Z,4.80
2018-11-23T19:47:22.411Z,4.70
2018-11-23T19:49:50.265Z,4.70
2018-11-23T19:52:18.244Z,4.80
2018-11-23T19:54:46.775Z,4.80
2018-11-23T19:57:14.687Z,4.80
2018-11-23T19:59:42.473Z,5.00
2018-11-23T20:02:11.016Z,5.00
2018-11-23T20:04:38.728Z,5.00
2018-11-23T20:07:06.681Z,5.10
2018-11-23T20:09:39.834Z,5.10
2018-11-23T20:12:03.276Z,5.20
2018-11-23T20:14:35.701Z,5.10
2018-11-23T20:17:04.221Z,5.00
2018-11-23T20:19:32.039Z,5.00
2018-11-23T20:21:59.920Z,5.00
2018-11-23T20:24:27.630Z,5.00
2018-11-23T20:26:55.851Z,4.90
2018-11-23T20:29:23.621Z,4.90
2018-11-23T20:31:51.421Z,4.80
2018-11-23T20:34:20.699Z,4.80
2018-11-23T20:36:49.546Z,4.80
2018-11-23T20:39:17.420Z,4.70
2018-11-23T20:41:45.208Z,4.80
2018-11-23T20:44:12.979Z,4.70
2018-11-23T20:46:41.403Z,4.60
2018-11-23T20:49:09.183Z,4.60
2018-11-23T20:51:36.984Z,4.60
2018-11-23T20:54:05.394Z,4.50
2018-11-23T20:56:33.783Z,4.40
2018-11-23T20:59:00.958Z,4.40
2018-11-23T21:01:28.730Z,4.40
2018-11-23T21:03:57.837Z,4.50
2018-11-23T21:06:25.599Z,4.60
2018-11-23T21:08:53.798Z,4.60
2018-11-23T21:11:22.224Z,4.50
2018-11-23T21:13:49.985Z,4.40
2018-11-23T21:16:18.806Z,4.50
2018-11-23T21:18:46.555Z,4.50
2018-11-23T21:21:14.311Z,4.60
2018-11-23T21:23:42.676Z,4.60
2018-11-23T21:26:10.345Z,4.50
2018-11-23T21:28:38.130Z,4.40
2018-11-23T21:31:06.398Z,4.20
2018-11-23T21:33:34.100Z,4.20
2018-11-23T21:36:01.961Z,4.30
2018-11-23T21:38:29.875Z,4.30
2018-11-23T21:40:57.584Z,4.20
2018-11-23T21:43:25.280Z,4.20
2018-11-23T21:45:52.997Z,4.10
2018-11-23T21:48:20.800Z,4.10
2018-11-23T21:50:48.816Z,4.10
2018-11-23T21:53:16.547Z,4.10
2018-11-23T21:55:44.443Z,4.00
2018-11-23T21:58:12.141Z,4.10
2018-11-23T22:00:39.964Z,4.10
2018-11-23T22:03:08.129Z,4.10
2018-11-23T22:05:36.562Z,4.10
2018-11-23T22:08:05.051Z,4.00
2018-11-23T22:10:33.009Z,4.00
2018-11-23T22:13:01.027Z,3.90
2018-11-23T22:15:28.813Z,3.80
2018-11-23T22:17:57.225Z,3.90
2018-11-23T22:20:25.660Z,3.90
2018-11-23T22:22:53.354Z,3.90
2018-11-23T22:25:21.964Z,3.90
2018-11-23T22:27:50.245Z,4.00
2018-11-23T22:30:23.074Z,4.00
2018-11-23T22:32:50.800Z,4.00
2018-11-23T22:35:19.255Z,4.10
2018-11-23T22:37:46.912Z,4.10
2018-11-23T22:40:18.035Z,4.20
2018-11-23T22:42:46.962Z,4.30
2018-11-23T22:45:15.847Z,4.40
2018-11-23T22:47:43.706Z,4.40
2018-11-23T22:50:16.503Z,4.50
2018-11-23T22:52:44.934Z,4.50
2018-11-23T22:55:13.620Z,4.60
2018-11-23T22:57:41.259Z,4.70
2018-11-23T23:00:18.998Z,4.60
2018-11-23T23:02:47.003Z,4.70
2018-11-23T23:05:14.631Z,4.70
2018-11-23T23:07:42.592Z,4.80
2018-11-23T23:10:11.204Z,4.80
2018-11-23T23:12:40.300Z,4.80
2018-11-23T23:15:09.644Z,4.90
2018-11-23T23:17:37.333Z,4.80
2018-11-23T23:20:09.550Z,4.90
2018-11-23T23:22:37.898Z,4.90
2018-11-23T23:25:07.357Z,4.90
2018-11-23T23:27:35.162Z,4.90
2018-11-23T23:30:03.107Z,5.00
2018-11-23T23:32:30.801Z,5.00
2018-11-23T23:34:58.663Z,5.10
2018-11-23T23:37:26.355Z,5.10
2018-11-23T23:39:54.859Z,5.10
2018-11-23T23:42:22.599Z,5.00
2018-11-23T23:44:50.968Z,5.00
2018-11-23T23:47:25.434Z,5.00
2018-11-23T23:49:53.428Z,5.10
2018-11-23T23:52:21.138Z,5.00
2018-11-23T23:54:48.797Z,5.10
2018-11-23T23:57:17.158Z,5.00
2018-11-23T23:59:44.921Z,4.90
